createdAt,value
2018-01-23T00:01:57.044Z,7.00
2018-01-23T00:04:24.740Z,7.00
2018-01-23T00:06:52.164Z,7.00
2018-01-23T00:09:19.652Z,7.00
2018-01-23T00:11:47.104Z,7.00
2018-01-23T00:14:14.580Z,7.00
2018-01-23T00:16:42.020Z,7.00
2018-01-23T00:19:09.789Z,7.00
2018-01-23T00:21:37.240Z,7.00
2018-01-23T00:24:04.660Z,7.00
2018-01-23T00:26:32.871Z,6.90
2018-01-23T00:29:00.292Z,6.80
2018-01-23T00:31:28.486Z,6.80
2018-01-23T00:33:55.920Z,6.80
2018-01-23T00:36:24.121Z,6.70
2018-01-23T00:38:51.539Z,6.70
2018-01-23T00:41:20.083Z,6.60
2018-01-23T00:43:47.503Z,6.60
2018-01-23T00:46:14.932Z,6.60
2018-01-23T00:48:43.155Z,6.50
2018-01-23T00:51:10.580Z,6.50
2018-01-23T00:53:38.787Z,6.50
2018-01-23T00:56:06.584Z,6.40
2018-01-23T00:58:34.019Z,6.40
2018-01-23T01:01:01.444Z,6.40
2018-01-23T01:03:28.880Z,6.40
2018-01-23T01:05:57.080Z,6.30
2018-01-23T01:08:24.556Z,6.40
2018-01-23T01:10:52.015Z,6.40
2018-01-23T01:13:19.490Z,6.40
2018-01-23T01:15:46.911Z,6.30
2018-01-23T01:18:14.595Z,6.30
2018-01-23T01:20:42.048Z,6.30
2018-01-23T01:23:09.512Z,6.30
2018-01-23T01:25:36.951Z,6.30
2018-01-23T01:28:04.383Z,6.30
2018-01-23T01:30:32.563Z,6.30
2018-01-23T01:33:00.256Z,6.30
2018-01-23T01:35:27.684Z,6.30
2018-01-23T01:37:55.117Z,6.30
2018-01-23T01:40:22.825Z,6.30
2018-01-23T01:42:50.252Z,6.30
2018-01-23T01:45:18.449Z,6.30
2018-01-23T01:47:45.919Z,6.20
2018-01-23T01:50:13.372Z,6.30
2018-01-23T01:52:40.801Z,6.30
2018-01-23T01:55:08.496Z,6.30
2018-01-23T01:57:35.928Z,6.30
2018-01-23T02:00:03.352Z,6.30
2018-01-23T02:02:31.562Z,6.30
2018-01-23T02:04:58.984Z,6.20
2018-01-23T02:07:27.236Z,6.30
2018-01-23T02:09:54.996Z,6.20
2018-01-23T02:12:22.421Z,6.30
2018-01-23T02:14:49.891Z,6.30
2018-01-23T02:17:17.329Z,6.30
2018-01-23T02:19:44.815Z,6.30
2018-01-23T02:22:12.264Z,6.20
2018-01-23T02:24:39.697Z,6.20
2018-01-23T02:27:07.124Z,6.20
2018-01-23T02:29:35.375Z,6.20
2018-01-23T02:32:03.117Z,6.20
2018-01-23T02:34:30.553Z,6.20
2018-01-23T02:36:57.981Z,6.20
2018-01-23T02:39:26.200Z,6.20
2018-01-23T02:41:53.624Z,6.20
2018-01-23T02:44:21.817Z,6.20
2018-01-23T02:46:49.503Z,6.20
2018-01-23T02:49:17.055Z,6.20
2018-01-23T02:51:44.503Z,6.20
2018-01-23T02:54:11.940Z,6.20
2018-01-23T02:56:40.138Z,6.20
2018-01-23T02:59:07.599Z,6.10
2018-01-23T03:01:35.036Z,6.20
2018-01-23T03:04:02.459Z,6.20
2018-01-23T03:06:29.884Z,6.20
2018-01-23T03:08:57.322Z,6.10
2018-01-23T03:11:24.773Z,6.10
2018-01-23T03:13:52.180Z,6.10
2018-01-23T03:16:19.902Z,6.10
2018-01-23T03:18:47.352Z,6.10
2018-01-23T03:21:14.775Z,6.10
2018-01-23T03:23:42.983Z,6.10
2018-01-23T03:26:10.455Z,6.10
2018-01-23T03:28:37.884Z,6.10
2018-01-23T03:31:05.668Z,6.10
2018-01-23T03:33:33.096Z,6.10
2018-01-23T03:36:00.597Z,6.10
2018-01-23T03:38:28.055Z,6.10
2018-01-23T03:40:55.476Z,6.10
2018-01-23T03:43:22.903Z,6.10
2018-01-23T03:45:51.449Z,6.10
2018-01-23T03:48:18.873Z,6.10
2018-01-23T03:50:46.353Z,6.10
2018-01-23T03:53:13.790Z,6.10
2018-01-23T03:55:41.264Z,6.10
2018-01-23T03:58:08.694Z,6.10
2018-01-23T04:00:36.388Z,6.10
2018-01-23T04:03:03.816Z,6.10
2018-01-23T04:05:31.303Z,6.10
2018-01-23T04:07:58.745Z,6.10
2018-01-23T04:10:26.164Z,6.10
2018-01-23T04:12:54.384Z,6.10
2018-01-23T04:15:21.851Z,6.00
2018-01-23T04:17:49.289Z,6.00
2018-01-23T04:20:16.708Z,6.00
2018-01-23T04:22:45.240Z,5.90
2018-01-23T04:25:12.703Z,5.90
2018-01-23T04:27:40.164Z,5.80
2018-01-23T04:30:07.608Z,5.80
2018-01-23T04:32:35.037Z,5.80
2018-01-23T04:35:02.460Z,5.70
2018-01-23T04:37:30.188Z,5.70
2018-01-23T04:39:57.609Z,5.60
2018-01-23T04:42:25.797Z,5.60
2018-01-23T04:44:53.227Z,5.50
2018-01-23T04:47:21.431Z,5.50
2018-01-23T04:49:48.852Z,5.40
2018-01-23T04:52:17.060Z,5.40
2018-01-23T04:54:44.489Z,5.30
2018-01-23T04:57:12.047Z,5.30
2018-01-23T04:59:39.475Z,5.30
2018-01-23T05:02:07.019Z,5.20
2018-01-23T05:04:34.440Z,5.20
2018-01-23T05:07:01.924Z,5.20
2018-01-23T05:09:29.356Z,5.20
2018-01-23T05:11:56.784Z,5.20
2018-01-23T05:14:24.295Z,5.20
2018-01-23T05:16:51.720Z,5.20
2018-01-23T05:19:19.911Z,5.30
2018-01-23T05:21:47.696Z,5.30
2018-01-23T05:24:15.128Z,5.30
2018-01-23T05:26:42.617Z,5.30
2018-01-23T05:29:10.063Z,5.30
2018-01-23T05:31:37.488Z,5.40
2018-01-23T05:34:05.672Z,5.40
2018-01-23T05:36:33.108Z,5.40
2018-01-23T05:39:01.338Z,5.40
2018-01-23T05:41:28.774Z,5.40
2018-01-23T05:43:56.447Z,5.50
2018-01-23T05:46:23.879Z,5.50
2018-01-23T05:48:51.299Z,5.50
2018-01-23T05:51:19.532Z,5.50
2018-01-23T05:53:46.985Z,5.50
2018-01-23T05:56:14.444Z,5.50
2018-01-23T05:58:41.900Z,5.50
2018-01-23T06:01:09.321Z,5.50
2018-01-23T06:03:36.735Z,5.60
2018-01-23T06:06:04.172Z,5.60
2018-01-23T06:08:31.629Z,5.60
2018-01-23T06:10:59.066Z,5.60
2018-01-23T06:13:26.534Z,5.60
2018-01-23T06:15:53.955Z,5.70
2018-01-23T06:18:22.155Z,5.70
2018-01-23T06:20:49.596Z,5.70
2018-01-23T06:23:17.052Z,5.70
2018-01-23T06:25:45.224Z,5.80
2018-01-23T06:28:12.660Z,5.70
2018-01-23T06:30:40.896Z,5.80
2018-01-23T06:33:08.460Z,5.70
2018-01-23T06:35:35.900Z,5.80
2018-01-23T06:38:03.332Z,5.80
2018-01-23T06:40:30.756Z,5.80
2018-01-23T06:42:58.963Z,5.80
2018-01-23T06:45:26.388Z,5.80
2018-01-23T06:47:54.624Z,5.90
2018-01-23T06:50:22.171Z,5.80
2018-01-23T06:52:49.619Z,5.90
2018-01-23T06:55:17.057Z,5.90
2018-01-23T06:57:44.543Z,5.90
2018-01-23T07:00:11.982Z,5.90
2018-01-23T07:02:39.488Z,5.90
2018-01-23T07:05:06.936Z,5.90
2018-01-23T07:07:34.364Z,6.00
2018-01-23T07:10:01.783Z,6.00
2018-01-23T07:12:29.996Z,6.00
2018-01-23T07:14:57.439Z,6.00
2018-01-23T07:17:25.608Z,6.10
2018-01-23T07:19:53.050Z,6.10
2018-01-23T07:22:21.265Z,6.10
2018-01-23T07:24:48.732Z,6.10
2018-01-23T07:27:16.180Z,6.10
2018-01-23T07:29:43.636Z,6.20
2018-01-23T07:32:11.092Z,6.20
2018-01-23T07:34:38.536Z,6.20
2018-01-23T07:37:05.967Z,6.20
2018-01-23T07:39:34.245Z,6.30
2018-01-23T07:42:02.437Z,6.30
2018-01-23T07:44:29.957Z,6.20
2018-01-23T07:46:57.343Z,6.30
2018-01-23T07:49:24.840Z,6.30
2018-01-23T07:51:52.287Z,6.30
2018-01-23T07:54:19.720Z,6.30
2018-01-23T07:56:47.194Z,6.30
2018-01-23T07:59:14.660Z,6.40
2018-01-23T08:01:42.091Z,6.40
2018-01-23T08:04:09.536Z,6.40
2018-01-23T08:06:37.733Z,6.40
2018-01-23T08:09:05.165Z,6.40
2018-01-23T08:11:33.376Z,6.40
2018-01-23T08:14:00.801Z,6.40
2018-01-23T08:16:29.000Z,6.50
2018-01-23T08:18:56.466Z,6.50
2018-01-23T08:21:24.020Z,6.50
2018-01-23T08:23:51.485Z,6.50
2018-01-23T08:26:19.168Z,6.60
2018-01-23T08:28:46.649Z,6.60
2018-01-23T08:31:14.106Z,6.60
2018-01-23T08:33:42.344Z,6.60
2018-01-23T08:36:10.589Z,6.60
2018-01-23T08:38:38.017Z,6.60
2018-01-23T08:41:06.397Z,6.70
2018-01-23T08:43:33.828Z,6.60
2018-01-23T08:46:01.260Z,6.70
2018-01-23T08:48:29.468Z,6.70
2018-01-23T08:50:56.936Z,6.70
2018-01-23T08:53:24.359Z,6.70
2018-01-23T08:55:52.572Z,6.80
2018-01-23T08:58:20.028Z,6.70
2018-01-23T09:00:47.503Z,6.80
2018-01-23T09:03:14.972Z,6.80
2018-01-23T09:05:42.398Z,6.80
2018-01-23T09:08:09.868Z,6.90
2018-01-23T09:10:37.421Z,6.90
2018-01-23T09:13:04.880Z,6.90
2018-01-23T09:15:32.324Z,6.90
2018-01-23T09:17:59.762Z,6.90
2018-01-23T09:20:27.256Z,7.00
2018-01-23T09:22:54.712Z,7.00
2018-01-23T09:25:22.151Z,7.00
2018-01-23T09:27:49.596Z,7.00
2018-01-23T09:30:17.028Z,7.10
2018-01-23T09:32:45.238Z,7.10
2018-01-23T09:35:12.656Z,7.10
2018-01-23T09:37:40.880Z,7.20
2018-01-23T09:40:08.336Z,7.20
2018-01-23T09:42:35.792Z,7.20
2018-01-23T09:45:03.219Z,7.20
2018-01-23T09:47:30.708Z,7.30
2018-01-23T09:50:00.524Z,7.30
2018-01-23T09:52:27.948Z,7.30
2018-01-23T09:54:55.389Z,7.30
2018-01-23T09:57:23.608Z,7.40
2018-01-23T09:59:51.040Z,7.40
2018-01-23T10:02:18.728Z,7.40
2018-01-23T10:04:46.152Z,7.50
2018-01-23T10:07:14.452Z,7.50
2018-01-23T10:09:41.880Z,7.50
2018-01-23T10:12:10.098Z,7.60
2018-01-23T10:14:37.548Z,7.60
2018-01-23T10:17:05.100Z,7.60
2018-01-23T10:19:32.564Z,7.70
2018-01-23T10:22:00.022Z,7.70
2018-01-23T10:24:27.458Z,7.70
2018-01-23T10:26:54.892Z,7.80
2018-01-23T10:29:23.080Z,7.90
2018-01-23T10:31:50.775Z,7.90
2018-01-23T10:34:18.219Z,7.90
2018-01-23T10:36:45.679Z,8.00
2018-01-23T10:39:13.096Z,8.00
2018-01-23T10:41:41.320Z,8.20
2018-01-23T10:44:08.776Z,8.10
2018-01-23T10:46:36.270Z,8.20
2018-01-23T10:49:03.783Z,8.20
2018-01-23T10:51:31.185Z,8.20
2018-01-23T10:53:58.722Z,8.30
2018-01-23T10:56:26.148Z,8.30
2018-01-23T10:58:53.571Z,8.30
2018-01-23T11:01:27.395Z,8.40
2018-01-23T11:03:54.873Z,8.40
2018-01-23T11:06:22.300Z,8.50
2018-01-23T11:08:50.503Z,8.60
2018-01-23T11:11:17.920Z,8.60
2018-01-23T11:13:46.144Z,8.70
2018-01-23T11:16:13.580Z,8.70
2018-01-23T11:18:41.028Z,8.80
2018-01-23T11:21:08.512Z,8.80
2018-01-23T11:23:35.952Z,8.80
2018-01-23T11:26:03.423Z,8.90
2018-01-23T11:28:30.884Z,8.90
2018-01-23T11:30:58.442Z,8.90
2018-01-23T11:33:25.846Z,8.90
2018-01-23T11:35:53.356Z,9.00
2018-01-23T11:38:20.809Z,9.10
2018-01-23T11:40:48.232Z,9.20
2018-01-23T11:43:16.444Z,9.50
2018-01-23T11:45:43.908Z,9.40
2018-01-23T11:48:11.364Z,9.50
2018-01-23T11:50:38.796Z,9.50
2018-01-23T11:53:06.233Z,9.50
2018-01-23T11:55:34.473Z,9.60
2018-01-23T11:58:01.900Z,9.60
2018-01-23T12:00:30.295Z,9.60
2018-01-23T12:02:57.750Z,9.70
2018-01-23T12:05:25.296Z,9.80
2018-01-23T12:07:52.762Z,9.90
2018-01-23T12:10:20.198Z,10.00
2018-01-23T12:12:47.632Z,10.10
2018-01-23T12:15:15.952Z,10.10
2018-01-23T12:17:43.405Z,10.10
2018-01-23T12:20:10.841Z,10.20
2018-01-23T12:22:38.283Z,10.20
2018-01-23T12:25:06.498Z,10.20
2018-01-23T12:27:33.928Z,10.10
2018-01-23T12:30:01.368Z,10.10
2018-01-23T12:32:29.580Z,10.10
2018-01-23T12:34:57.025Z,10.10
2018-01-23T12:37:24.468Z,10.10
2018-01-23T12:39:51.896Z,10.20
2018-01-23T12:42:19.416Z,10.20
2018-01-23T12:44:47.188Z,10.20
2018-01-23T12:47:14.626Z,10.20
2018-01-23T12:49:42.052Z,10.20
2018-01-23T12:52:10.372Z,10.30
2018-01-23T12:54:37.832Z,10.30
2018-01-23T12:57:05.288Z,10.30
2018-01-23T12:59:32.744Z,10.30
2018-01-23T13:02:00.206Z,10.40
2018-01-23T13:04:27.632Z,10.40
2018-01-23T13:06:55.076Z,10.50
2018-01-23T13:09:23.280Z,10.40
2018-01-23T13:11:50.756Z,10.40
2018-01-23T13:14:18.204Z,10.40
2018-01-23T13:16:45.632Z,10.40
2018-01-23T13:19:13.060Z,10.30
2018-01-23T13:21:40.504Z,10.30
2018-01-23T13:24:07.931Z,10.30
2018-01-23T13:26:35.387Z,10.30
2018-01-23T13:29:02.832Z,10.20
2018-01-23T13:31:30.253Z,10.20
2018-01-23T13:33:58.461Z,10.10
2018-01-23T13:36:25.944Z,10.10
2018-01-23T13:38:53.396Z,10.10
2018-01-23T13:41:20.824Z,10.00
2018-01-23T13:43:48.306Z,9.90
2018-01-23T13:46:15.765Z,9.90
2018-01-23T13:48:43.219Z,9.80
2018-01-23T13:51:10.766Z,9.70
2018-01-23T13:53:38.172Z,9.60
2018-01-23T13:56:05.600Z,9.50
2018-01-23T13:58:33.040Z,9.50
2018-01-23T14:01:00.496Z,9.50
2018-01-23T14:03:27.920Z,9.40
2018-01-23T14:05:56.117Z,9.30
2018-01-23T14:08:23.540Z,9.30
2018-01-23T14:10:51.754Z,9.10
2018-01-23T14:13:19.200Z,9.10
2018-01-23T14:15:46.628Z,9.10
2018-01-23T14:18:14.900Z,8.90
2018-01-23T14:20:43.360Z,8.90
2018-01-23T14:23:10.888Z,8.90
2018-01-23T14:25:38.372Z,8.90
2018-01-23T14:28:05.816Z,8.80
2018-01-23T14:30:33.257Z,8.80
2018-01-23T14:33:00.720Z,8.80
2018-01-23T14:35:28.156Z,8.80
2018-01-23T14:37:55.582Z,8.80
2018-01-23T14:40:23.800Z,8.70
2018-01-23T14:42:51.212Z,8.70
2018-01-23T14:45:19.406Z,8.70
2018-01-23T14:47:46.839Z,8.70
2018-01-23T14:50:14.353Z,8.70
2018-01-23T14:52:41.812Z,8.70
2018-01-23T14:55:09.243Z,8.70
2018-01-23T14:57:36.677Z,8.70
2018-01-23T15:00:04.885Z,8.70
2018-01-23T15:02:32.296Z,8.70
2018-01-23T15:04:59.836Z,8.70
2018-01-23T15:07:27.368Z,8.70
2018-01-23T15:09:54.852Z,8.70
2018-01-23T15:12:22.515Z,8.70
2018-01-23T15:14:50.050Z,8.70
2018-01-23T15:17:17.508Z,8.70
2018-01-23T15:19:44.964Z,8.70
2018-01-23T15:22:12.416Z,8.70
2018-01-23T15:24:39.953Z,8.80
2018-01-23T15:27:08.175Z,8.70
2018-01-23T15:29:35.606Z,8.70
2018-01-23T15:32:03.027Z,8.70
2018-01-23T15:34:31.244Z,8.70
2018-01-23T15:36:58.700Z,8.70
2018-01-23T15:39:26.168Z,8.80
2018-01-23T15:41:53.615Z,8.70
2018-01-23T15:44:21.062Z,8.70
2018-01-23T15:46:48.481Z,8.70
2018-01-23T15:49:16.683Z,8.70
2018-01-23T15:51:44.164Z,8.70
2018-01-23T15:54:11.600Z,8.70
2018-01-23T15:56:39.041Z,8.70
2018-01-23T15:59:06.548Z,8.70
2018-01-23T16:01:33.977Z,8.70
2018-01-23T16:04:01.424Z,8.70
2018-01-23T16:06:28.900Z,8.70
2018-01-23T16:08:56.360Z,8.70
2018-01-23T16:11:23.863Z,8.70
2018-01-23T16:13:51.240Z,8.70
2018-01-23T16:16:18.735Z,8.70
2018-01-23T16:18:46.176Z,8.70
2018-01-23T16:21:13.648Z,8.70
2018-01-23T16:23:41.100Z,8.70
2018-01-23T16:26:08.655Z,8.70
2018-01-23T16:28:36.066Z,8.80
2018-01-23T16:31:04.260Z,8.80
2018-01-23T16:33:31.845Z,8.80
2018-01-23T16:35:59.260Z,8.80
2018-01-23T16:38:27.458Z,8.90
2018-01-23T16:40:54.900Z,8.90
2018-01-23T16:43:23.112Z,8.90
2018-01-23T16:45:50.549Z,8.90
2018-01-23T16:48:18.044Z,8.90
2018-01-23T16:50:45.484Z,8.90
2018-01-23T16:53:12.920Z,8.90
2018-01-23T16:55:40.400Z,8.90
2018-01-23T16:58:07.835Z,8.90
2018-01-23T17:00:35.328Z,8.90
2018-01-23T17:03:02.810Z,9.00
2018-01-23T17:05:31.761Z,9.00
2018-01-23T17:07:59.198Z,9.00
2018-01-23T17:10:26.675Z,9.00
2018-01-23T17:12:54.138Z,9.00
2018-01-23T17:15:21.596Z,9.00
2018-01-23T17:17:49.075Z,9.00
2018-01-23T17:20:16.509Z,9.00
2018-01-23T17:22:43.956Z,9.00
2018-01-23T17:25:11.732Z,9.00
2018-01-23T17:27:39.165Z,9.00
2018-01-23T17:30:06.652Z,9.00
2018-01-23T17:32:34.096Z,9.00
2018-01-23T17:35:01.569Z,9.00
2018-01-23T17:37:28.997Z,9.00
2018-01-23T17:39:56.766Z,9.00
2018-01-23T17:42:24.195Z,9.10
2018-01-23T17:44:52.410Z,9.00
2018-01-23T17:47:19.892Z,9.00
2018-01-23T17:49:47.429Z,9.10
2018-01-23T17:52:14.876Z,9.10
2018-01-23T17:54:42.345Z,9.10
2018-01-23T17:57:09.793Z,9.10
2018-01-23T17:59:37.261Z,9.10
2018-01-23T18:02:04.715Z,9.10
2018-01-23T18:04:32.178Z,9.10
2018-01-23T18:06:59.632Z,9.10
2018-01-23T18:09:27.093Z,9.10
2018-01-23T18:11:54.669Z,9.10
2018-01-23T18:14:22.093Z,9.10
2018-01-23T18:16:49.561Z,9.20
2018-01-23T18:19:17.020Z,9.10
2018-01-23T18:21:44.480Z,9.20
2018-01-23T18:24:12.239Z,9.20
2018-01-23T18:26:39.696Z,9.20
2018-01-23T18:29:07.124Z,9.20
2018-01-23T18:31:34.828Z,9.20
2018-01-23T18:34:02.260Z,9.20
2018-01-23T18:36:29.725Z,9.20
2018-01-23T18:38:57.508Z,9.20
2018-01-23T18:41:24.940Z,9.30
2018-01-23T18:43:52.360Z,9.30
2018-01-23T18:46:20.580Z,9.30
2018-01-23T18:48:48.018Z,9.30
2018-01-23T18:51:15.502Z,9.30
2018-01-23T18:53:43.052Z,9.30
2018-01-23T18:56:10.483Z,9.30
2018-01-23T18:58:37.976Z,9.40
2018-01-23T19:01:05.524Z,9.40
2018-01-23T19:03:32.985Z,9.40
2018-01-23T19:06:00.421Z,9.40
2018-01-23T19:08:27.848Z,9.40
2018-01-23T19:10:56.048Z,9.40
2018-01-23T19:13:23.478Z,9.40
2018-01-23T19:15:50.911Z,9.40
2018-01-23T19:18:18.347Z,9.40
2018-01-23T19:20:45.840Z,9.50
2018-01-23T19:23:13.362Z,9.50
2018-01-23T19:25:40.792Z,9.50
2018-01-23T19:28:08.269Z,9.50
2018-01-23T19:30:35.771Z,9.50
2018-01-23T19:33:03.299Z,9.50
2018-01-23T19:35:30.756Z,9.50
2018-01-23T19:37:58.194Z,9.50
2018-01-23T19:40:25.633Z,9.50
2018-01-23T19:42:53.834Z,9.50
2018-01-23T19:45:21.288Z,9.60
2018-01-23T19:47:48.724Z,9.60
2018-01-23T19:50:16.150Z,9.60
2018-01-23T19:52:43.664Z,9.60
2018-01-23T19:55:11.120Z,9.60
2018-01-23T19:57:38.548Z,9.60
2018-01-23T20:00:05.991Z,9.60
2018-01-23T20:02:34.303Z,9.70
2018-01-23T20:05:01.712Z,9.60
2018-01-23T20:07:29.924Z,9.70
2018-01-23T20:09:57.407Z,9.70
2018-01-23T20:12:24.868Z,9.70
2018-01-23T20:14:52.319Z,9.70
2018-01-23T20:17:19.774Z,9.70
2018-01-23T20:19:47.230Z,9.80
2018-01-23T20:22:14.677Z,9.80
2018-01-23T20:24:42.112Z,9.80
2018-01-23T20:27:09.549Z,9.80
2018-01-23T20:29:37.784Z,9.80
2018-01-23T20:32:05.208Z,9.80
2018-01-23T20:34:32.688Z,9.80
2018-01-23T20:37:00.141Z,9.80
2018-01-23T20:39:27.608Z,9.90
2018-01-23T20:41:55.057Z,9.90
2018-01-23T20:44:22.505Z,9.90
2018-01-23T20:46:49.971Z,9.90
2018-01-23T20:49:17.423Z,9.90
2018-01-23T20:51:45.220Z,9.90
2018-01-23T20:54:12.626Z,10.00
2018-01-23T20:56:40.112Z,10.00
2018-01-23T20:59:07.668Z,10.00
2018-01-23T21:01:35.128Z,10.00
2018-01-23T21:04:02.579Z,10.00
2018-01-23T21:06:30.343Z,10.00
2018-01-23T21:08:57.797Z,10.00
2018-01-23T21:11:25.264Z,10.00
2018-01-23T21:13:52.712Z,10.00
2018-01-23T21:16:20.185Z,10.00
2018-01-23T21:18:47.628Z,10.00
2018-01-23T21:21:15.077Z,10.00
2018-01-23T21:23:42.584Z,10.00
2018-01-23T21:26:10.020Z,10.00
2018-01-23T21:28:37.468Z,10.00
2018-01-23T21:31:04.917Z,10.00
2018-01-23T21:33:32.388Z,10.00
2018-01-23T21:36:00.080Z,10.00
2018-01-23T21:38:27.600Z,10.00
2018-01-23T21:40:55.058Z,10.00
2018-01-23T21:43:22.524Z,10.00
2018-01-23T21:45:49.964Z,10.00
2018-01-23T21:48:17.420Z,10.00
2018-01-23T21:50:44.900Z,10.00
2018-01-23T21:53:12.444Z,10.00
2018-01-23T21:55:39.900Z,10.00
2018-01-23T21:58:07.343Z,10.10
2018-01-23T22:00:34.913Z,10.10
2018-01-23T22:03:02.295Z,10.10
2018-01-23T22:05:30.819Z,10.10
2018-01-23T22:07:58.248Z,10.10
2018-01-23T22:10:25.786Z,10.10
2018-01-23T22:12:53.456Z,10.20
2018-01-23T22:15:20.891Z,10.20
2018-01-23T22:17:48.408Z,10.30
2018-01-23T22:20:15.939Z,10.30
2018-01-23T22:22:43.400Z,10.40
2018-01-23T22:25:10.837Z,10.40
2018-01-23T22:27:38.307Z,10.50
2018-01-23T22:30:05.740Z,10.60
2018-01-23T22:32:33.176Z,10.60
2018-01-23T22:35:01.388Z,10.70
2018-01-23T22:37:28.860Z,10.60
2018-01-23T22:39:56.313Z,10.70
2018-01-23T22:42:23.760Z,10.70
2018-01-23T22:44:51.192Z,10.70
2018-01-23T22:47:18.624Z,10.70
2018-01-23T22:49:46.869Z,10.70
2018-01-23T22:52:14.296Z,10.70
2018-01-23T22:54:41.764Z,10.70
2018-01-23T22:57:09.210Z,10.70
2018-01-23T22:59:36.648Z,10.70
2018-01-23T23:02:04.080Z,10.70
2018-01-23T23:04:31.796Z,10.70
2018-01-23T23:06:59.223Z,10.70
2018-01-23T23:09:26.683Z,10.70
2018-01-23T23:11:54.136Z,10.70
2018-01-23T23:14:21.567Z,10.70
2018-01-23T23:16:49.893Z,10.70
2018-01-23T23:19:17.559Z,10.70
2018-01-23T23:21:44.996Z,10.70
2018-01-23T23:24:12.478Z,10.70
2018-01-23T23:26:39.931Z,10.70
2018-01-23T23:29:07.392Z,10.80
2018-01-23T23:31:34.856Z,10.80
2018-01-23T23:34:02.408Z,10.80
2018-01-23T23:36:29.872Z,10.80
2018-01-23T23:38:57.322Z,10.80
2018-01-23T23:41:25.078Z,10.80
2018-01-23T23:43:52.521Z,10.80
2018-01-23T23:46:19.956Z,10.90
2018-01-23T23:48:48.171Z,10.90
2018-01-23T23:51:15.631Z,10.90
2018-01-23T23:53:43.092Z,10.90
2018-01-23T23:56:10.785Z,10.90
2018-01-23T23:58:39.740Z,10.90
